Time;durP1;ratioP1;P1;durP2;ratioP2;P2;SDS_P1;SDS_P2;PMS_P1;PMS_P2;Temp;Humidity;BMP_temperature;BMP_pressure;BME280_temperature;BME280_humidity;BME280_pressure;Samples;Min_cycle;Max_cycle;Signal;HPM_P1;HPM_P2
2022/03/24 00:00:23;;;;;;;0.30;0.20;;;;;;;7.75;32.39;96034.28;5091671;28;20439;-52
2022/03/24 00:02:51;;;;;;;0.50;0.50;;;;;;;7.87;34.02;96029.78;5091711;28;20507;-52
2022/03/24 00:05:21;;;;;;;0.30;0.20;;;;;;;8.05;43.09;96020.88;5091524;28;20600;-52
2022/03/24 00:07:50;;;;;;;0.30;0.20;;;;;;;7.89;32.70;96029.56;5091449;28;20459;-52
2022/03/24 00:10:18;;;;;;;1.47;1.43;;;;;;;7.62;35.07;96027.44;5091853;28;20497;-52
2022/03/24 00:12:47;;;;;;;0.87;0.87;;;;;;;7.43;33.04;96023.38;5091601;28;20425;-52
2022/03/24 00:15:15;;;;;;;0.40;0.30;;;;;;;7.53;43.36;96022.78;5091339;28;20467;-52
2022/03/24 00:17:43;;;;;;;0.30;0.20;;;;;;;7.33;33.79;96009.97;5091070;28;21008;-52
2022/03/24 00:20:13;;;;;;;0.30;0.20;;;;;;;7.46;34.98;96003.63;5092924;28;21019;-52
2022/03/24 00:22:43;;;;;;;0.30;0.20;;;;;;;7.07;33.90;95992.00;5095471;28;20955;-52
2022/03/24 00:25:11;;;;;;;0.40;0.20;;;;;;;7.18;33.95;96007.00;5095473;28;20551;-52
2022/03/24 00:27:40;;;;;;;0.40;0.30;;;;;;;7.55;34.37;96000.41;5095289;28;20424;-52
2022/03/24 00:30:09;;;;;;;2.10;0.87;;;;;;;7.54;34.67;95992.69;5095123;28;20439;-52
2022/03/24 00:32:38;;;;;;;2.40;2.20;;;;;;;7.63;34.75;96000.03;5095175;28;20433;-52
2022/03/24 00:35:08;;;;;;;0.70;0.70;;;;;;;7.51;36.70;95988.69;5094932;28;20424;-52
2022/03/24 00:37:36;;;;;;;0.40;0.30;;;;;;;7.47;34.95;95997.31;5095079;28;20432;-52
2022/03/24 00:40:07;;;;;;;0.37;0.30;;;;;;;7.27;34.85;96002.16;5095049;28;20930;-52
2022/03/24 00:42:37;;;;;;;0.30;0.20;;;;;;;7.10;34.33;95982.81;5095064;28;20455;-52
2022/03/24 00:45:09;;;;;;;0.70;0.30;;;;;;;6.82;34.99;96000.13;5095023;28;20464;-52
2022/03/24 00:47:38;;;;;;;0.30;0.20;;;;;;;6.94;35.43;95995.66;5094736;28;20428;-52
2022/03/24 00:50:09;;;;;;;0.30;0.30;;;;;;;6.98;35.72;95974.94;5094858;28;20944;-52
2022/03/24 00:52:41;;;;;;;2.30;1.70;;;;;;;7.25;35.07;95986.59;5094712;28;20460;-52
2022/03/24 00:55:13;;;;;;;0.37;0.20;;;;;;;6.81;36.06;95989.81;5095068;28;20416;-52
2022/03/24 00:57:43;;;;;;;0.30;0.20;;;;;;;6.77;35.70;95954.44;5094961;28;20444;-52
2022/03/24 01:00:15;;;;;;;1.10;1.10;;;;;;;6.76;35.54;95955.44;5094605;28;20533;-52
2022/03/24 01:02:44;;;;;;;0.43;0.43;;;;;;;7.16;36.73;95976.63;5094689;28;20464;-52
2022/03/24 01:05:13;;;;;;;0.40;0.37;;;;;;;7.14;35.72;95976.84;5094334;28;20986;-52
2022/03/24 01:07:42;;;;;;;1.13;0.70;;;;;;;6.87;36.64;95962.56;5094287;28;20478;-52
2022/03/24 01:10:15;;;;;;;0.30;0.20;;;;;;;6.32;37.65;95970.75;5094710;28;20429;-52
2022/03/24 01:12:44;;;;;;;3.40;1.73;;;;;;;6.23;38.55;95969.47;5094339;28;20466;-52
2022/03/24 01:15:16;;;;;;;0.40;0.30;;;;;;;6.19;38.38;95970.97;5094404;28;20508;-52
2022/03/24 01:17:45;;;;;;;1.10;0.40;;;;;;;6.11;38.69;95973.91;5094292;28;20877;-52
2022/03/24 01:20:14;;;;;;;0.30;0.20;;;;;;;6.07;38.59;95964.84;5094437;28;20873;-52
2022/03/24 01:22:43;;;;;;;0.30;0.20;;;;;;;6.50;41.20;95961.19;5094596;28;20481;-52
2022/03/24 01:25:16;;;;;;;0.40;0.40;;;;;;;6.23;38.12;95955.50;5094055;28;20918;-52
2022/03/24 01:27:45;;;;;;;0.93;0.77;;;;;;;6.30;38.02;95958.84;5094506;28;20448;-52
2022/03/24 01:30:14;;;;;;;0.40;0.30;;;;;;;6.85;37.14;95948.81;5094263;28;20433;-52
2022/03/24 01:32:42;;;;;;;0.50;0.37;;;;;;;6.85;38.48;95948.81;5093051;28;20420;-52
2022/03/24 01:35:11;;;;;;;0.50;0.50;;;;;;;6.57;38.05;95956.59;5093850;28;20475;-52
2022/03/24 01:37:40;;;;;;;0.57;0.57;;;;;;;6.57;38.04;95907.38;5093846;28;20428;-52
2022/03/24 01:40:11;;;;;;;0.43;0.40;;;;;;;6.61;38.71;95955.91;5094061;28;20460;-52
2022/03/24 01:42:43;;;;;;;0.40;0.40;;;;;;;6.15;38.47;95946.13;5094163;28;20884;-52
2022/03/24 01:45:12;;;;;;;0.33;0.23;;;;;;;6.19;41.91;95954.38;5093774;28;20547;-52
2022/03/24 01:47:40;;;;;;;3.17;0.77;;;;;;;6.08;38.26;95934.91;5093844;28;20932;-52
2022/03/24 01:50:11;;;;;;;0.30;0.23;;;;;;;5.90;38.90;95953.38;5093700;28;20440;-52
2022/03/24 01:52:39;;;;;;;0.30;0.20;;;;;;;6.01;39.66;95949.97;5093959;28;20489;-52
2022/03/24 01:55:09;;;;;;;1.27;1.17;;;;;;;6.03;39.48;95940.03;5093572;28;20437;-52
2022/03/24 01:57:38;;;;;;;0.67;0.67;;;;;;;6.49;40.64;95946.41;5093312;28;20471;-52
2022/03/24 02:00:10;;;;;;;0.30;0.20;;;;;;;6.93;41.91;95951.88;5093475;28;20490;-52
2022/03/24 02:02:42;;;;;;;0.30;0.20;;;;;;;6.20;40.07;95950.69;5093801;28;20440;-52
2022/03/24 02:05:11;;;;;;;0.30;0.20;;;;;;;5.99;39.98;95941.53;5093280;28;21056;-52
2022/03/24 02:07:39;;;;;;;0.30;0.20;;;;;;;6.24;58.48;95950.03;5093420;28;20436;-52
2022/03/24 02:10:09;;;;;;;0.37;0.27;;;;;;;6.39;40.73;95939.88;5093326;28;20425;-52
2022/03/24 02:12:38;;;;;;;1.73;1.07;;;;;;;5.41;40.61;95864.25;5093190;28;21054;-52
2022/03/24 02:15:10;;;;;;;2.93;0.53;;;;;;;5.77;40.86;95946.44;5093334;28;20472;-52
2022/03/24 02:17:39;;;;;;;0.30;0.20;;;;;;;5.80;41.21;95947.81;5093236;28;20972;-52
2022/03/24 02:20:10;;;;;;;0.60;0.60;;;;;;;6.01;41.32;95949.19;5093057;28;20511;-52
2022/03/24 02:22:40;;;;;;;0.40;0.30;;;;;;;6.51;40.27;95945.13;5093383;28;20511;-52
2022/03/24 02:25:09;;;;;;;0.60;0.60;;;;;;;6.24;40.21;95922.91;5092927;28;20496;-52
2022/03/24 02:27:39;;;;;;;0.30;0.30;;;;;;;6.18;40.00;95943.03;5092973;28;20511;-52
2022/03/24 02:30:10;;;;;;;3.27;0.30;;;;;;;6.30;39.57;95940.41;5092943;28;20439;-52
2022/03/24 02:32:38;;;;;;;0.40;0.40;;;;;;;6.32;40.86;95944.41;5092857;28;20464;-52
2022/03/24 02:35:08;;;;;;;0.30;0.20;;;;;;;6.43;39.89;95937.56;5092799;28;20432;-52
2022/03/24 02:37:36;;;;;;;0.30;0.30;;;;;;;6.48;40.25;95929.00;5092985;28;20455;-52
2022/03/24 02:40:07;;;;;;;0.30;0.20;;;;;;;6.75;39.14;95940.69;5092503;28;20461;-52
2022/03/24 02:42:35;;;;;;;0.40;0.33;;;;;;;6.38;39.97;95943.53;5092670;28;20770;-52
2022/03/24 02:45:08;;;;;;;0.30;0.20;;;;;;;6.07;40.78;95943.81;5092618;28;20982;-52
2022/03/24 02:47:36;;;;;;;0.30;0.20;;;;;;;6.58;45.40;95937.91;5092926;28;20511;-52
2022/03/24 02:50:06;;;;;;;0.40;0.20;;;;;;;6.23;41.75;95924.72;5092557;28;20515;-52
2022/03/24 02:52:34;;;;;;;0.40;0.30;;;;;;;6.24;41.48;95942.16;5092607;28;20460;-52
2022/03/24 02:55:03;;;;;;;0.30;0.20;;;;;;;5.86;40.42;95886.47;5092518;28;20912;-52
2022/03/24 02:57:33;;;;;;;0.53;0.53;;;;;;;5.62;41.81;95947.84;5092162;28;20519;-52
2022/03/24 03:00:03;;;;;;;1.10;1.10;;;;;;;5.40;41.83;95957.25;5092664;28;20862;-52
2022/03/24 03:02:31;;;;;;;0.30;0.30;;;;;;;4.80;42.58;95948.44;5092313;28;20421;-52
2022/03/24 03:05:00;;;;;;;0.30;0.20;;;;;;;5.02;42.42;95945.16;5092318;28;20425;-52
2022/03/24 03:07:30;;;;;;;0.30;0.20;;;;;;;5.70;40.73;95942.28;5091984;28;20555;-52
2022/03/24 03:09:58;;;;;;;0.50;0.50;;;;;;;6.36;40.03;95942.94;5092035;28;20879;-52
2022/03/24 03:12:28;;;;;;;0.37;0.27;;;;;;;6.75;38.56;95932.78;5091589;28;20545;-52
2022/03/24 03:14:57;;;;;;;0.30;0.20;;;;;;;6.73;38.29;95934.84;5092167;28;20938;-52
2022/03/24 03:17:28;;;;;;;0.30;0.20;;;;;;;6.72;37.87;95939.31;5092454;28;20464;-52
2022/03/24 03:19:56;;;;;;;0.30;0.20;;;;;;;6.82;39.22;95939.53;5092124;28;20417;-52
2022/03/24 03:22:26;;;;;;;0.30;0.20;;;;;;;6.86;39.85;95943.31;5092374;28;20871;-55
2022/03/24 03:25:02;;;;;;;0.30;0.20;;;;;;;6.85;40.69;95930.38;5092046;28;20472;-52
2022/03/24 03:27:31;;;;;;;0.70;0.70;;;;;;;6.82;40.87;95936.09;5091961;28;20550;-52
2022/03/24 03:30:01;;;;;;;0.37;0.30;;;;;;;6.71;39.79;95927.16;5091549;28;20519;-52
2022/03/24 03:32:29;;;;;;;0.30;0.20;;;;;;;6.84;39.27;95931.38;5091889;28;20489;-52
2022/03/24 03:34:58;;;;;;;6.87;0.80;;;;;;;6.87;40.07;95928.31;5091956;28;20467;-52
2022/03/24 03:37:27;;;;;;;0.30;0.20;;;;;;;6.66;39.90;95926.25;5091917;28;20912;-52
2022/03/24 03:39:55;;;;;;;0.30;0.20;;;;;;;6.55;39.31;95906.81;5091904;28;20460;-52
2022/03/24 03:42:24;;;;;;;0.30;0.20;;;;;;;6.70;39.84;95932.66;5091846;28;20992;-52
2022/03/24 03:44:53;;;;;;;1.80;0.40;;;;;;;6.62;39.79;95909.31;5091921;28;20550;-51
2022/03/24 03:47:23;;;;;;;0.30;0.20;;;;;;;6.93;40.25;95943.19;5091784;28;20476;-51
2022/03/24 03:49:51;;;;;;;1.27;1.17;;;;;;;6.79;39.98;95941.81;5092038;28;20432;-51
2022/03/24 03:52:30;;;;;;;0.30;0.20;;;;;;;6.76;39.99;95940.44;5092026;28;20432;-51
2022/03/24 03:54:58;;;;;;;0.30;0.20;;;;;;;6.74;40.10;95936.44;5092725;28;20433;-51
2022/03/24 03:57:27;;;;;;;0.30;0.20;;;;;;;6.65;39.98;95928.09;5095774;28;20523;-51
2022/03/24 03:59:55;;;;;;;0.30;0.20;;;;;;;6.74;39.69;95937.25;5095944;28;20505;-51
2022/03/24 04:02:25;;;;;;;0.30;0.20;;;;;;;6.74;39.89;95933.81;5095356;28;20519;-51
2022/03/24 04:04:53;;;;;;;2.10;0.47;;;;;;;6.61;40.20;95949.81;5095623;28;20447;-51
2022/03/24 04:07:22;;;;;;;2.40;0.37;;;;;;;6.40;40.78;95951.19;5095475;28;20460;-51
2022/03/24 04:09:50;;;;;;;0.30;0.20;;;;;;;6.65;40.29;95943.09;5095251;28;20463;-51
2022/03/24 04:12:21;;;;;;;0.40;0.30;;;;;;;6.42;40.83;95943.06;5095449;28;20951;-52
2022/03/24 04:14:49;;;;;;;0.40;0.30;;;;;;;6.53;41.44;95939.66;5095368;28;20428;-52
2022/03/24 04:17:19;;;;;;;0.30;0.20;;;;;;;6.52;41.65;95943.31;5094531;28;20417;-52
2022/03/24 04:19:49;;;;;;;0.80;0.67;;;;;;;6.49;40.92;95943.75;5095309;28;20456;-52
2022/03/24 04:22:17;;;;;;;0.30;0.20;;;;;;;6.42;41.03;95943.88;5095330;28;20452;-52
2022/03/24 04:24:45;;;;;;;0.50;0.33;;;;;;;6.48;41.76;95944.81;5095552;28;20436;-52
2022/03/24 04:27:14;;;;;;;0.40;0.33;;;;;;;6.47;43.11;95949.28;5095065;28;21067;-52
2022/03/24 04:29:42;;;;;;;0.50;0.50;;;;;;;6.50;42.06;95951.44;5095077;28;20427;-53
2022/03/24 04:32:11;;;;;;;0.30;0.20;;;;;;;5.58;42.94;95949.34;5094832;28;20546;-52
2022/03/24 04:34:39;;;;;;;0.30;0.20;;;;;;;5.81;42.13;95954.69;5095000;28;20523;-52
2022/03/24 04:37:09;;;;;;;0.30;0.20;;;;;;;5.51;43.37;95946.00;5094623;28;20420;-51
2022/03/24 04:39:37;;;;;;;0.30;0.20;;;;;;;5.37;42.45;95898.03;5095235;28;20507;-52
2022/03/24 04:42:08;;;;;;;0.30;0.20;;;;;;;5.67;43.17;95945.38;5094962;28;20520;-52
2022/03/24 04:44:36;;;;;;;0.70;0.70;;;;;;;5.53;42.74;95950.00;5094765;28;20471;-52
2022/03/24 04:47:05;;;;;;;0.30;0.20;;;;;;;5.60;42.91;95952.53;5094610;28;20555;-52
2022/03/24 04:49:33;;;;;;;0.60;0.50;;;;;;;5.62;42.49;95948.66;5093869;28;20466;-52
2022/03/24 04:52:03;;;;;;;0.30;0.20;;;;;;;5.49;43.01;95955.94;5094734;28;20516;-52
2022/03/24 04:54:33;;;;;;;0.40;0.40;;;;;;;5.28;44.40;95959.03;5094665;28;20463;-54
2022/03/24 04:57:01;;;;;;;0.40;0.40;;;;;;;5.46;43.98;95951.13;5094895;28;20424;-52
2022/03/24 04:59:30;;;;;;;2.87;2.77;;;;;;;5.67;44.71;95955.88;5094412;28;20475;-52
2022/03/24 05:01:58;;;;;;;1.80;0.50;;;;;;;5.79;44.09;95959.38;5093747;28;20987;-52
2022/03/24 05:04:27;;;;;;;0.60;0.60;;;;;;;5.66;44.68;95954.28;5094412;28;21027;-53
2022/03/24 05:07:01;;;;;;;0.30;0.20;;;;;;;5.76;43.86;95957.19;5093427;28;20460;-53
2022/03/24 05:09:29;;;;;;;0.93;0.93;;;;;;;3.71;44.51;95667.63;5094133;28;20512;-53
2022/03/24 05:11:59;;;;;;;0.33;0.30;;;;;;;5.56;45.16;95951.41;5094686;28;20448;-53
2022/03/24 05:14:27;;;;;;;0.40;0.30;;;;;;;5.50;45.35;95952.28;5094134;28;20463;-53
2022/03/24 05:16:56;;;;;;;0.40;0.40;;;;;;;5.43;45.73;95960.25;5094441;28;20492;-53
2022/03/24 05:19:24;;;;;;;0.70;0.67;;;;;;;5.71;44.82;95957.88;5094329;28;20546;-52
2022/03/24 05:21:52;;;;;;;1.30;0.40;;;;;;;6.07;43.73;95950.91;5094436;28;20499;-53
2022/03/24 05:24:21;;;;;;;0.60;0.60;;;;;;;6.08;42.83;95960.41;5094063;28;20428;-53
2022/03/24 05:26:49;;;;;;;0.53;0.53;;;;;;;6.15;42.68;95951.38;5093860;28;20555;-52
2022/03/24 05:29:19;;;;;;;0.40;0.30;;;;;;;6.48;42.30;95961.38;5094005;28;20448;-52
2022/03/24 05:31:48;;;;;;;0.40;0.40;;;;;;;6.14;42.77;95954.25;5093804;28;20485;-53
2022/03/24 05:34:16;;;;;;;1.30;1.23;;;;;;;6.34;40.88;95955.56;5093378;28;20511;-53
2022/03/24 05:36:44;;;;;;;0.33;0.20;;;;;;;6.72;40.49;95947.22;5093915;28;20858;-53
2022/03/24 05:39:13;;;;;;;0.73;0.73;;;;;;;6.51;40.53;95958.31;5093752;28;20890;-53
2022/03/24 05:41:41;;;;;;;0.30;0.20;;;;;;;6.61;41.01;95955.09;5093581;28;20526;-53
2022/03/24 05:44:10;;;;;;;0.33;0.30;;;;;;;7.03;40.04;95959.22;5093464;28;20808;-53
2022/03/24 05:46:48;;;;;;;1.10;1.07;;;;;;;7.23;39.47;95967.56;5093617;28;20510;-53
2022/03/24 05:49:19;;;;;;;0.57;0.57;;;;;;;7.29;38.59;95961.34;5093422;28;20428;-53
2022/03/24 05:51:48;;;;;;;1.90;1.27;;;;;;;7.45;38.45;95957.19;5093426;28;20420;-53
2022/03/24 05:54:18;;;;;;;0.30;0.30;;;;;;;6.77;43.99;95964.97;5093102;28;20890;-53
2022/03/24 05:56:47;;;;;;;0.80;0.80;;;;;;;6.89;42.69;95950.75;5093231;28;20448;-53
2022/03/24 05:59:16;;;;;;;0.30;0.20;;;;;;;7.69;41.98;95948.94;5093470;28;20513;-53
2022/03/24 06:01:47;;;;;;;1.33;1.23;;;;;;;7.45;42.97;95950.09;5093478;28;20519;-53
2022/03/24 06:04:19;;;;;;;0.40;0.30;;;;;;;7.82;42.23;95942.59;5093403;28;20448;-53
2022/03/24 06:06:49;;;;;;;1.40;0.73;;;;;;;8.11;41.40;95935.47;5092837;28;20916;-53
2022/03/24 06:09:18;;;;;;;0.60;0.60;;;;;;;8.48;39.77;95935.81;5092457;28;20474;-53
2022/03/24 06:11:47;;;;;;;3.00;2.90;;;;;;;8.40;40.54;95937.00;5093053;28;20900;-53
2022/03/24 06:14:16;;;;;;;2.13;1.93;;;;;;;7.93;39.50;95904.00;5092300;28;20437;-52
2022/03/24 06:16:45;;;;;;;1.80;1.70;;;;;;;8.91;38.39;95935.94;5092863;28;20460;-52
2022/03/24 06:19:15;;;;;;;1.20;1.20;;;;;;;9.37;37.61;95932.84;5091794;28;20449;-52
2022/03/24 06:21:43;;;;;;;0.40;0.30;;;;;;;9.99;36.03;95929.84;5093230;28;20421;-52
2022/03/24 06:24:12;;;;;;;1.70;1.00;;;;;;;10.17;35.73;95926.84;5092946;28;20420;-51
2022/03/24 06:26:40;;;;;;;0.43;0.43;;;;;;;10.51;35.48;95932.69;5093065;28;20523;-51
2022/03/24 06:29:11;;;;;;;0.50;0.43;;;;;;;10.14;35.03;95930.78;5092616;28;20474;-50
2022/03/24 06:31:40;;;;;;;2.87;2.77;;;;;;;10.31;34.88;95932.53;5092751;28;20933;-50
2022/03/24 06:34:09;;;;;;;0.80;0.80;;;;;;;11.11;33.92;95922.47;5093138;28;20443;-50
2022/03/24 06:36:39;;;;;;;1.47;0.77;;;;;;;10.95;33.59;95915.50;5092414;28;20940;-50
2022/03/24 06:39:08;;;;;;;0.40;0.40;;;;;;;10.09;34.64;95930.72;5092841;28;20479;-50
2022/03/24 06:41:37;;;;;;;0.40;0.37;;;;;;;9.30;34.28;95627.25;5092751;28;20466;-50
2022/03/24 06:44:07;;;;;;;0.60;0.60;;;;;;;10.74;34.20;95905.81;5092487;28;20481;-50
2022/03/24 06:46:38;;;;;;;0.37;0.27;;;;;;;12.05;33.29;95927.63;5092465;28;20471;-50
2022/03/24 06:49:07;;;;;;;0.30;0.20;;;;;;;12.36;32.28;95905.34;5092419;28;21058;-49
2022/03/24 06:51:36;;;;;;;0.30;0.23;;;;;;;12.82;32.00;95900.00;5092528;28;20452;-50
2022/03/24 06:54:06;;;;;;;0.53;0.53;;;;;;;12.37;30.94;95898.97;5092101;28;20995;-51
2022/03/24 06:56:35;;;;;;;1.20;1.20;;;;;;;12.85;30.68;95822.31;5092249;28;20424;-50
2022/03/24 06:59:03;;;;;;;0.60;0.60;;;;;;;13.33;29.90;95901.50;5091852;28;20436;-50
2022/03/24 07:01:32;;;;;;;0.60;0.60;;;;;;;13.26;30.69;95895.66;5092528;28;20524;-50
2022/03/24 07:04:01;;;;;;;1.37;1.30;;;;;;;13.20;29.88;95891.44;5092331;28;20435;-50
2022/03/24 07:06:29;;;;;;;0.63;0.60;;;;;;;13.25;29.77;95889.56;5091254;28;20439;-50
2022/03/24 07:08:58;;;;;;;5.90;0.70;;;;;;;13.76;29.24;95890.09;5091749;28;20538;-51
2022/03/24 07:11:28;;;;;;;1.93;1.83;;;;;;;13.63;28.90;95885.41;5092230;28;20425;-51
2022/03/24 07:13:56;;;;;;;1.60;0.87;;;;;;;14.09;28.57;95874.47;5092379;28;20428;-52
2022/03/24 07:16:25;;;;;;;3.60;3.40;;;;;;;13.91;28.50;95890.00;5092335;28;20861;-52
2022/03/24 07:18:53;;;;;;;1.80;1.73;;;;;;;14.09;28.95;95882.47;5092170;28;20434;-53
2022/03/24 07:21:22;;;;;;;1.23;1.07;;;;;;;15.03;27.79;95882.72;5091962;28;20511;-53
2022/03/24 07:23:51;;;;;;;0.80;0.77;;;;;;;14.91;27.46;95870.84;5091604;28;20447;-54
2022/03/24 07:26:19;;;;;;;0.43;0.43;;;;;;;15.20;27.92;95883.06;5091972;28;20425;-54
2022/03/24 07:28:49;;;;;;;0.63;0.63;;;;;;;15.62;26.42;95869.00;5091808;28;20503;-57
2022/03/24 07:31:19;;;;;;;0.50;0.40;;;;;;;16.82;26.10;95852.19;5091460;28;20939;-55
2022/03/24 07:33:48;;;;;;;2.10;1.63;;;;;;;16.78;25.28;95859.22;5091862;28;20432;-56
2022/03/24 07:36:20;;;;;;;0.60;0.60;;;;;;;16.51;26.42;95851.88;5092143;28;20424;-57
2022/03/24 07:38:49;;;;;;;1.53;1.53;;;;;;;17.50;24.98;95851.41;5091813;28;20453;-57
2022/03/24 07:41:17;;;;;;;0.70;0.47;;;;;;;17.64;25.36;95839.59;5091763;28;20426;-57
2022/03/24 07:43:46;;;;;;;0.60;0.40;;;;;;;18.20;24.06;95841.84;5091200;28;20989;-56
2022/03/24 07:46:16;;;;;;;3.60;1.80;;;;;;;16.43;25.62;95847.19;5091743;28;20456;-56
2022/03/24 07:48:47;;;;;;;1.47;0.73;;;;;;;17.30;26.08;95855.31;5091842;28;20499;-56
2022/03/24 07:51:18;;;;;;;5.13;0.60;;;;;;;17.45;26.10;95830.88;5091904;28;20473;-55
2022/03/24 07:53:59;;;;;;;4.77;1.30;;;;;;;17.12;25.87;95835.56;5091549;28;20420;-55
2022/03/24 07:56:28;;;;;;;1.37;1.27;;;;;;;17.85;24.87;95836.47;5091534;28;20463;-56
2022/03/24 07:58:57;;;;;;;8.03;1.90;;;;;;;17.00;25.78;95837.13;5091635;28;20948;-55
2022/03/24 08:01:29;;;;;;;2.13;0.33;;;;;;;17.80;25.04;95834.72;5091562;28;20505;-55
2022/03/24 08:04:00;;;;;;;0.60;0.50;;;;;;;16.86;26.07;95839.00;5091856;28;20439;-55
2022/03/24 08:06:29;;;;;;;1.23;0.93;;;;;;;17.07;25.86;95830.31;5091762;28;20451;-55
2022/03/24 08:08:58;;;;;;;1.27;0.47;;;;;;;18.08;24.97;95830.06;5091348;28;20545;-55
2022/03/24 08:11:27;;;;;;;1.90;1.80;;;;;;;17.66;25.77;95824.00;5091773;28;20456;-55
2022/03/24 08:13:57;;;;;;;2.77;1.43;;;;;;;18.88;24.58;95809.28;5091699;28;20861;-55
2022/03/24 08:16:27;;;;;;;1.93;0.90;;;;;;;19.20;23.81;95800.06;5091038;28;20420;-56
2022/03/24 08:18:56;;;;;;;0.73;0.73;;;;;;;19.09;23.92;95804.16;5091718;28;20561;-56
2022/03/24 08:21:25;;;;;;;0.63;0.40;;;;;;;19.49;24.72;95748.47;5091465;28;20503;-55
2022/03/24 08:23:53;;;;;;;0.63;0.63;;;;;;;20.15;23.99;95798.31;5089375;28;20428;-55
2022/03/24 08:26:22;;;;;;;0.50;0.50;;;;;;;20.32;22.84;95784.06;5089148;28;20435;-56
2022/03/24 08:28:55;;;;;;;1.60;1.50;;;;;;;20.11;24.61;95782.00;5089301;28;20533;-55
2022/03/24 08:31:24;;;;;;;1.40;1.10;;;;;;;20.83;22.78;95786.66;5089485;28;20482;-55
2022/03/24 08:33:54;;;;;;;0.93;0.87;;;;;;;21.59;21.72;95776.63;5089465;28;21058;-54
2022/03/24 08:36:23;;;;;;;1.57;0.80;;;;;;;21.74;21.67;95783.34;5089945;28;20432;-54
2022/03/24 08:38:52;;;;;;;2.23;0.50;;;;;;;21.92;22.67;95768.63;5090813;28;20431;-54
2022/03/24 08:41:20;;;;;;;6.60;1.63;;;;;;;21.85;22.40;95757.56;5093032;28;20503;-54
2022/03/24 08:43:48;;;;;;;0.80;0.80;;;;;;;23.30;20.83;95758.75;5094752;28;20428;-54
2022/03/24 08:46:17;;;;;;;1.70;1.60;;;;;;;22.80;20.30;95762.88;5093839;28;20526;-54
2022/03/24 08:48:46;;;;;;;1.60;1.00;;;;;;;23.08;20.58;95753.78;5094967;28;20878;-54
2022/03/24 08:51:17;;;;;;;0.53;0.53;;;;;;;23.60;20.79;95745.78;5094927;28;20425;-54
2022/03/24 08:53:46;;;;;;;0.60;0.60;;;;;;;23.78;19.64;95736.25;5094942;28;20508;-54
2022/03/24 08:56:14;;;;;;;1.80;0.83;;;;;;;24.30;19.88;95735.44;5094606;28;20925;-53
2022/03/24 08:58:43;;;;;;;2.47;2.37;;;;;;;24.25;19.72;95732.97;5094560;28;20887;-53
2022/03/24 09:01:12;;;;;;;1.07;1.07;;;;;;;23.80;20.72;95668.25;5094733;28;20878;-54
2022/03/24 09:03:41;;;;;;;0.70;0.50;;;;;;;23.25;19.79;95672.41;5094777;28;20444;-54
2022/03/24 09:06:11;;;;;;;2.23;2.10;;;;;;;23.90;20.05;95728.13;5094369;28;20519;-54
2022/03/24 09:08:40;;;;;;;1.60;0.70;;;;;;;24.55;19.79;95731.44;5094044;28;20476;-54
2022/03/24 09:11:09;;;;;;;0.87;0.87;;;;;;;24.39;18.69;95714.38;5094323;28;20440;-54
2022/03/24 09:13:38;;;;;;;1.90;1.80;;;;;;;24.84;19.22;95720.25;5094646;28;20508;-54
2022/03/24 09:16:07;;;;;;;1.47;1.23;;;;;;;24.60;18.25;95717.66;5094324;28;20489;-54
2022/03/24 09:18:35;;;;;;;0.50;0.50;;;;;;;24.66;18.65;95705.41;5094219;28;20424;-54
2022/03/24 09:21:04;;;;;;;0.67;0.67;;;;;;;25.15;17.44;95709.34;5094442;28;20511;-54
2022/03/24 09:23:33;;;;;;;1.03;0.93;;;;;;;24.14;17.40;95705.59;5094166;28;20430;-54
2022/03/24 09:26:04;;;;;;;1.57;0.90;;;;;;;24.77;14.90;95709.16;5093575;28;20420;-55
2022/03/24 09:28:52;;;;;;;0.50;0.50;;;;;;;25.44;14.14;95707.28;5092673;28;20878;-54
2022/03/24 09:31:21;;;;;;;0.40;0.30;;;;;;;25.46;14.78;95705.03;5091842;28;20425;-54
2022/03/24 09:33:50;;;;;;;0.50;0.50;;;;;;;25.13;14.83;95700.00;5091938;28;20511;-54
2022/03/24 09:36:18;;;;;;;0.97;0.80;;;;;;;25.00;13.80;95691.16;5092107;28;20520;-55
2022/03/24 09:38:46;;;;;;;3.87;0.93;;;;;;;24.43;14.11;95699.00;5091590;28;20416;-55
2022/03/24 09:41:19;;;;;;;2.20;0.97;;;;;;;24.84;13.65;95690.41;5091670;28;21006;-55
2022/03/24 09:43:48;;;;;;;0.97;0.80;;;;;;;25.76;15.32;95689.78;5092629;28;20508;-54
2022/03/24 09:46:20;;;;;;;0.70;0.60;;;;;;;25.57;14.56;95687.84;5093642;28;20858;-54
2022/03/24 09:48:50;;;;;;;1.40;0.87;;;;;;;24.54;14.95;95698.13;5093475;28;20482;-54
2022/03/24 09:51:19;;;;;;;0.63;0.60;;;;;;;24.20;14.20;95679.03;5093566;28;20531;-54
2022/03/24 09:53:48;;;;;;;0.47;0.40;;;;;;;25.66;14.33;95682.19;5093059;28;20433;-54
2022/03/24 09:56:19;;;;;;;3.67;0.70;;;;;;;25.04;15.35;95664.94;5093440;28;20436;-54
2022/03/24 09:58:49;;;;;;;1.43;1.33;;;;;;;24.24;14.50;95612.97;5093534;28;20421;-54
2022/03/24 10:01:18;;;;;;;0.60;0.50;;;;;;;25.52;14.59;95680.00;5093346;28;20999;-54
2022/03/24 10:04:04;;;;;;;0.90;0.90;;;;;;;25.16;13.60;95659.38;5093346;28;20431;-54
2022/03/24 10:06:33;;;;;;;0.50;0.30;;;;;;;25.79;13.69;95667.34;5093402;28;20889;-54
2022/03/24 10:09:01;;;;;;;0.40;0.30;;;;;;;26.35;13.29;95662.25;5093022;28;20495;-54
2022/03/24 10:11:31;;;;;;;0.67;0.50;;;;;;;26.26;14.23;95662.47;5093206;28;20425;-54
2022/03/24 10:14:00;;;;;;;0.80;0.80;;;;;;;26.87;13.39;95650.72;5093169;28;20460;-54
2022/03/24 10:16:41;;;;;;;0.77;0.77;;;;;;;26.32;14.47;95660.25;5093238;28;20925;-54
2022/03/24 10:19:12;;;;;;;0.50;0.40;;;;;;;26.02;13.59;95654.63;5093097;28;20437;-54
2022/03/24 10:21:43;;;;;;;1.10;1.10;;;;;;;24.66;14.43;95642.28;5093053;28;20503;-54
2022/03/24 10:24:13;;;;;;;0.77;0.50;;;;;;;24.65;14.62;95641.50;5092771;28;20470;-54
2022/03/24 10:26:45;;;;;;;0.73;0.63;;;;;;;25.41;14.44;95632.00;5092991;28;20507;-54
2022/03/24 10:29:15;;;;;;;2.20;1.00;;;;;;;25.11;13.99;95570.16;5092622;28;20970;-54
2022/03/24 10:31:44;;;;;;;1.03;0.60;;;;;;;26.29;13.06;95623.69;5092851;28;20464;-54
2022/03/24 10:34:13;;;;;;;2.77;1.30;;;;;;;26.14;13.57;95629.25;5092717;28;20685;-54
2022/03/24 10:36:43;;;;;;;1.00;0.90;;;;;;;27.67;13.56;95618.44;5092970;28;20452;-54
2022/03/24 10:39:11;;;;;;;1.27;0.93;;;;;;;26.78;13.57;95617.56;5092919;28;20840;-55
2022/03/24 10:41:40;;;;;;;2.43;0.50;;;;;;;27.14;13.49;95618.88;5092537;28;20460;-55
2022/03/24 10:44:13;;;;;;;0.63;0.63;;;;;;;26.58;12.63;95614.09;5092840;28;20511;-54
2022/03/24 10:46:43;;;;;;;0.63;0.63;;;;;;;27.92;11.93;95599.66;5092614;28;20458;-54
2022/03/24 10:49:17;;;;;;;0.90;0.83;;;;;;;27.62;12.51;95605.16;5092632;28;20857;-54
2022/03/24 10:51:47;;;;;;;0.57;0.57;;;;;;;26.08;13.06;95606.22;5092756;28;20435;-55
2022/03/24 10:54:39;;;;;;;0.87;0.87;;;;;;;26.38;13.23;95604.44;5092363;28;20460;-54
2022/03/24 10:57:13;;;;;;;0.40;0.37;;;;;;;27.17;12.08;95593.66;5092765;28;20420;-54
2022/03/24 10:59:47;;;;;;;2.30;0.60;;;;;;;27.83;12.97;95584.78;5091350;28;21017;-55
2022/03/24 11:02:17;;;;;;;0.60;0.50;;;;;;;27.90;12.59;95591.09;5092335;28;20424;-54
2022/03/24 11:04:45;;;;;;;1.40;1.00;;;;;;;28.33;11.52;95575.97;5091452;28;20516;-55
2022/03/24 11:07:24;;;;;;;1.63;1.13;;;;;;;29.21;10.42;95578.59;5092276;28;20467;-55
2022/03/24 11:09:53;;;;;;;0.77;0.77;;;;;;;27.88;11.28;95566.13;5091766;28;20480;-55
2022/03/24 11:12:27;;;;;;;1.87;0.93;;;;;;;27.48;12.57;95561.41;5092419;28;20429;-55
2022/03/24 11:14:59;;;;;;;0.97;0.87;;;;;;;27.84;12.45;95559.09;5092042;28;20835;-55
2022/03/24 11:17:30;;;;;;;2.30;1.13;;;;;;;26.39;13.20;95568.75;5092331;28;20497;-55
2022/03/24 11:20:07;;;;;;;0.47;0.47;;;;;;;26.94;11.93;95558.34;5091877;28;21001;-54
2022/03/24 11:22:41;;;;;;;4.03;0.57;;;;;;;26.36;12.73;95561.31;5091956;28;20438;-55
2022/03/24 11:25:10;;;;;;;0.70;0.70;;;;;;;25.95;11.87;95547.78;5091885;28;20463;-54
2022/03/24 11:27:39;;;;;;;0.80;0.80;;;;;;;27.23;12.38;95543.97;5091776;28;20992;-53
2022/03/24 11:30:11;;;;;;;0.50;0.50;;;;;;;27.18;11.89;95538.84;5091631;28;20559;-55
2022/03/24 11:32:43;;;;;;;0.80;0.80;;;;;;;27.28;11.77;95530.03;5091927;28;20420;-54
2022/03/24 11:35:12;;;;;;;1.70;1.60;;;;;;;26.18;12.01;95529.56;5092045;28;20523;-54
2022/03/24 11:37:41;;;;;;;1.07;1.00;;;;;;;26.12;12.33;95536.44;5091740;28;20416;-55
2022/03/24 11:40:12;;;;;;;0.60;0.60;;;;;;;27.17;10.91;95504.63;5091930;28;20459;-54
2022/03/24 11:42:48;;;;;;;2.50;0.53;;;;;;;26.74;10.83;95527.72;5091745;28;20464;-54
2022/03/24 11:45:28;;;;;;;1.00;0.87;;;;;;;26.68;11.72;95417.72;5092014;28;20553;-55
2022/03/24 11:48:05;;;;;;;0.60;0.50;;;;;;;27.41;10.33;95517.78;5092025;28;20435;-54
2022/03/24 11:50:52;;;;;;;0.40;0.30;;;;;;;28.12;11.31;95505.69;5091881;28;20466;-55